createdAt,value
2023-05-06T00:01:24.337Z,12.41
2023-05-06T00:03:51.605Z,12.33
2023-05-06T00:06:18.348Z,12.26
2023-05-06T00:08:45.883Z,12.24
2023-05-06T00:11:13.665Z,12.19
2023-05-06T00:13:40.545Z,12.13
2023-05-06T00:16:07.249Z,12.10
2023-05-06T00:18:33.782Z,12.03
2023-05-06T00:21:00.358Z,12.06
2023-05-06T00:23:26.818Z,12.07
2023-05-06T00:25:54.644Z,12.02
2023-05-06T00:28:21.165Z,11.95
2023-05-06T00:30:47.633Z,11.98
2023-05-06T00:33:14.105Z,11.91
2023-05-06T00:35:40.549Z,11.90
2023-05-06T00:38:09.555Z,11.88
2023-05-06T00:40:36.414Z,11.78
2023-05-06T00:43:03.446Z,11.78
2023-05-06T00:45:30.043Z,11.70
2023-05-06T00:47:57.561Z,11.61
2023-05-06T00:50:24.854Z,11.64
2023-05-06T00:52:51.847Z,11.61
2023-05-06T00:55:18.431Z,11.61
2023-05-06T00:57:45.038Z,11.57
2023-05-06T01:00:11.796Z,11.61
2023-05-06T01:02:46.853Z,11.49
2023-05-06T01:05:17.589Z,11.37
2023-05-06T01:07:52.275Z,11.37
2023-05-06T01:10:33.741Z,11.42
2023-05-06T01:13:21.322Z,11.50
2023-05-06T01:15:53.994Z,11.43
2023-05-06T01:18:26.355Z,11.48
2023-05-06T01:20:54.750Z,11.46
2023-05-06T01:23:21.482Z,11.50
2023-05-06T01:25:48.143Z,11.43
2023-05-06T01:28:16.897Z,11.46
2023-05-06T01:30:52.986Z,11.49
2023-05-06T01:33:29.963Z,11.51
2023-05-06T01:36:04.327Z,11.53
2023-05-06T01:38:45.947Z,11.60
2023-05-06T01:41:16.019Z,11.55
2023-05-06T01:43:44.637Z,11.58
2023-05-06T01:46:17.820Z,11.61
2023-05-06T01:48:46.349Z,11.64
2023-05-06T01:51:12.955Z,11.67
2023-05-06T01:53:39.393Z,11.64
2023-05-06T01:56:05.982Z,11.64
2023-05-06T01:58:32.494Z,11.65
2023-05-06T02:00:58.973Z,11.57
2023-05-06T02:03:25.687Z,11.56
2023-05-06T02:05:52.458Z,11.62
2023-05-06T02:08:20.586Z,11.64
2023-05-06T02:10:47.118Z,11.69
2023-05-06T02:13:13.648Z,11.71
2023-05-06T02:15:40.177Z,11.67
2023-05-06T02:18:09.726Z,11.64
2023-05-06T02:20:36.170Z,11.67
2023-05-06T02:23:03.160Z,11.68
2023-05-06T02:25:29.811Z,11.70
2023-05-06T02:27:56.320Z,11.80
2023-05-06T02:30:22.761Z,11.78
2023-05-06T02:32:49.230Z,11.82
2023-05-06T02:35:16.039Z,11.88
2023-05-06T02:37:42.921Z,11.76
2023-05-06T02:40:09.964Z,11.65
2023-05-06T02:42:37.242Z,11.62
2023-05-06T02:45:04.120Z,11.58
2023-05-06T02:47:32.105Z,11.59
2023-05-06T02:49:58.652Z,11.52
2023-05-06T02:52:25.353Z,11.48
2023-05-06T02:54:52.131Z,11.37
2023-05-06T02:57:18.605Z,11.13
2023-05-06T02:59:45.019Z,10.95
2023-05-06T03:02:11.507Z,10.90
2023-05-06T03:04:37.986Z,10.88
2023-05-06T03:07:04.450Z,10.93
2023-05-06T03:09:30.958Z,10.74
2023-05-06T03:11:57.492Z,10.44
2023-05-06T03:14:24.164Z,10.28
2023-05-06T03:16:50.797Z,10.06
2023-05-06T03:19:17.725Z,9.87
2023-05-06T03:21:44.934Z,9.80
2023-05-06T03:24:11.598Z,9.67
2023-05-06T03:26:38.439Z,9.68
2023-05-06T03:29:05.408Z,9.84
2023-05-06T03:31:32.504Z,9.97
2023-05-06T03:34:00.668Z,9.95
2023-05-06T03:36:27.909Z,9.64
2023-05-06T03:38:55.135Z,9.39
2023-05-06T03:41:23.200Z,9.15
2023-05-06T03:43:49.720Z,9.10
2023-05-06T03:46:19.021Z,8.99
2023-05-06T03:48:45.577Z,8.95
2023-05-06T03:51:15.284Z,8.95
2023-05-06T03:53:41.902Z,8.94
2023-05-06T03:56:08.604Z,8.96
2023-05-06T03:58:36.659Z,8.75
2023-05-06T04:01:05.511Z,8.74
2023-05-06T04:03:32.737Z,8.70
2023-05-06T04:05:59.564Z,8.64
2023-05-06T04:08:26.669Z,8.53
2023-05-06T04:10:54.884Z,8.53
2023-05-06T04:13:27.633Z,8.58
2023-05-06T04:15:56.701Z,8.57
2023-05-06T04:18:27.659Z,8.50
2023-05-06T04:21:00.110Z,8.53
2023-05-06T04:23:28.402Z,8.64
2023-05-06T04:25:57.813Z,8.70
2023-05-06T04:28:24.990Z,8.62
2023-05-06T04:30:52.764Z,8.73
2023-05-06T04:33:22.285Z,8.77
2023-05-06T04:35:56.077Z,8.80
2023-05-06T04:38:25.733Z,8.93
2023-05-06T04:40:52.805Z,9.09
2023-05-06T04:43:19.534Z,9.10
2023-05-06T04:45:51.487Z,9.13
2023-05-06T04:48:23.179Z,9.20
2023-05-06T04:50:51.362Z,9.12
2023-05-06T04:53:17.835Z,9.09
2023-05-06T04:55:44.342Z,9.20
2023-05-06T04:58:10.975Z,9.36
2023-05-06T05:00:38.117Z,9.47
2023-05-06T05:03:04.890Z,9.59
2023-05-06T05:05:33.383Z,9.76
2023-05-06T05:08:00.581Z,9.87
2023-05-06T05:10:29.228Z,10.01
2023-05-06T05:12:55.986Z,10.07
2023-05-06T05:15:22.948Z,10.18
2023-05-06T05:17:50.464Z,10.27
2023-05-06T05:20:17.923Z,10.44
2023-05-06T05:22:44.437Z,10.56
2023-05-06T05:25:11.335Z,10.70
2023-05-06T05:27:37.984Z,10.85
2023-05-06T05:30:04.909Z,10.99
2023-05-06T05:32:34.484Z,11.14
2023-05-06T05:35:00.926Z,11.25
2023-05-06T05:37:27.405Z,11.38
2023-05-06T05:39:53.881Z,11.51
2023-05-06T05:42:20.636Z,11.65
2023-05-06T05:44:47.761Z,11.76
2023-05-06T05:47:15.350Z,11.92
2023-05-06T05:49:41.859Z,12.06
2023-05-06T05:52:09.756Z,12.18
2023-05-06T05:54:37.225Z,12.29
2023-05-06T05:57:04.220Z,12.38
2023-05-06T05:59:32.792Z,12.46
2023-05-06T06:02:02.701Z,12.63
2023-05-06T06:04:29.441Z,12.77
2023-05-06T06:07:01.839Z,12.83
2023-05-06T06:09:30.593Z,12.85
2023-05-06T06:11:59.178Z,12.88
2023-05-06T06:14:25.720Z,12.97
2023-05-06T06:16:53.141Z,12.97
2023-05-06T06:19:20.550Z,12.90
2023-05-06T06:21:47.238Z,12.99
2023-05-06T06:24:14.572Z,12.96
2023-05-06T06:26:41.063Z,13.11
2023-05-06T06:29:07.748Z,13.26
2023-05-06T06:31:34.779Z,13.29
2023-05-06T06:34:05.166Z,13.27
2023-05-06T06:36:32.170Z,13.26
2023-05-06T06:38:58.623Z,13.33
2023-05-06T06:41:27.120Z,13.36
2023-05-06T06:43:53.879Z,13.51
2023-05-06T06:46:25.107Z,13.57
2023-05-06T06:48:51.590Z,13.51
2023-05-06T06:51:18.008Z,13.63
2023-05-06T06:53:44.520Z,13.76
2023-05-06T06:56:12.280Z,13.91
2023-05-06T06:58:38.746Z,14.12
2023-05-06T07:01:05.520Z,14.32
2023-05-06T07:03:31.985Z,14.42
2023-05-06T07:05:58.535Z,14.62
2023-05-06T07:08:25.195Z,14.79
2023-05-06T07:10:51.602Z,14.94
2023-05-06T07:13:20.524Z,15.07
2023-05-06T07:15:47.094Z,15.14
2023-05-06T07:18:13.684Z,15.30
2023-05-06T07:20:40.533Z,15.36
2023-05-06T07:23:06.968Z,15.53
2023-05-06T07:25:33.513Z,15.53
2023-05-06T07:27:59.989Z,15.40
2023-05-06T07:30:26.520Z,15.16
2023-05-06T07:32:53.253Z,15.24
2023-05-06T07:35:19.713Z,15.35
2023-05-06T07:37:46.700Z,15.46
2023-05-06T07:40:13.270Z,15.31
2023-05-06T07:42:42.684Z,15.26
2023-05-06T07:45:10.134Z,15.24
2023-05-06T07:47:36.924Z,15.28
2023-05-06T07:50:05.911Z,15.28
2023-05-06T07:52:32.567Z,15.63
2023-05-06T07:54:59.069Z,15.83
2023-05-06T07:57:25.531Z,15.65
2023-05-06T07:59:52.819Z,15.52
2023-05-06T08:02:19.373Z,15.40
2023-05-06T08:04:46.469Z,15.50
2023-05-06T08:07:13.191Z,15.13
2023-05-06T08:09:39.719Z,14.92
2023-05-06T08:12:06.257Z,15.19
2023-05-06T08:14:32.706Z,15.32
2023-05-06T08:16:59.216Z,15.56
2023-05-06T08:19:26.504Z,15.57
2023-05-06T08:21:53.018Z,15.68
2023-05-06T08:24:20.163Z,15.67
2023-05-06T08:26:46.669Z,15.92
2023-05-06T08:29:13.503Z,16.08
2023-05-06T08:31:40.047Z,16.12
2023-05-06T08:34:06.624Z,16.10
2023-05-06T08:36:33.137Z,16.28
2023-05-06T08:38:59.546Z,16.20
2023-05-06T08:41:27.374Z,16.35
2023-05-06T08:43:55.398Z,16.49
2023-05-06T08:46:22.819Z,16.64
2023-05-06T08:48:49.412Z,16.63
2023-05-06T08:51:16.264Z,16.45
2023-05-06T08:53:47.749Z,16.36
2023-05-06T08:56:15.182Z,16.27
2023-05-06T08:58:45.537Z,16.64
2023-05-06T09:01:12.260Z,16.71
2023-05-06T09:03:38.863Z,16.97
2023-05-06T09:06:05.592Z,16.85
2023-05-06T09:08:32.041Z,16.80
2023-05-06T09:10:58.475Z,17.12
2023-05-06T09:13:24.908Z,17.66
2023-05-06T09:15:55.201Z,18.06
2023-05-06T09:18:22.485Z,17.99
2023-05-06T09:20:49.906Z,17.53
2023-05-06T09:23:17.991Z,17.58
2023-05-06T09:25:46.733Z,17.12
2023-05-06T09:28:14.400Z,17.22
2023-05-06T09:30:42.622Z,17.28
2023-05-06T09:33:09.637Z,17.13
2023-05-06T09:35:41.894Z,17.26
2023-05-06T09:38:08.814Z,17.26
2023-05-06T09:40:36.635Z,17.61
2023-05-06T09:43:03.687Z,17.59
2023-05-06T09:45:30.776Z,17.67
2023-05-06T09:47:58.582Z,17.68
2023-05-06T09:50:26.422Z,18.02
2023-05-06T09:52:55.107Z,17.68
2023-05-06T09:55:23.238Z,18.00
2023-05-06T09:57:50.010Z,18.40
2023-05-06T10:00:17.367Z,18.47
2023-05-06T10:02:45.561Z,18.41
2023-05-06T10:05:13.270Z,18.29
2023-05-06T10:07:42.218Z,18.21
2023-05-06T10:10:11.297Z,17.96
2023-05-06T10:12:37.947Z,17.88
2023-05-06T10:15:05.393Z,17.87
2023-05-06T10:17:33.338Z,18.09
2023-05-06T10:20:01.707Z,18.13
2023-05-06T10:22:38.154Z,17.96
2023-05-06T10:25:17.051Z,18.20
2023-05-06T10:27:45.113Z,18.26
2023-05-06T10:30:14.702Z,18.62
2023-05-06T10:32:43.373Z,18.38
2023-05-06T10:35:34.193Z,18.69
2023-05-06T10:38:03.950Z,19.09
2023-05-06T10:40:31.275Z,18.83
2023-05-06T10:43:28.129Z,18.40
2023-05-06T10:46:09.406Z,18.25
2023-05-06T10:48:59.792Z,18.29
2023-05-06T10:51:28.298Z,18.57
2023-05-06T10:54:04.574Z,18.52
2023-05-06T10:56:51.068Z,18.52
2023-05-06T10:59:23.553Z,18.89
2023-05-06T11:02:10.432Z,19.28
2023-05-06T11:04:37.541Z,18.98
2023-05-06T11:07:12.294Z,18.78
2023-05-06T11:09:59.791Z,19.26
2023-05-06T11:12:49.597Z,19.44
2023-05-06T11:15:40.157Z,19.45
2023-05-06T11:18:24.685Z,19.90
2023-05-06T11:21:01.309Z,19.96
2023-05-06T11:23:43.210Z,19.69
2023-05-06T11:26:11.103Z,19.44
2023-05-06T11:28:38.847Z,19.43
2023-05-06T11:31:05.999Z,19.40
2023-05-06T11:33:34.185Z,19.57
2023-05-06T11:36:01.370Z,19.92
2023-05-06T11:38:44.082Z,20.32
2023-05-06T11:41:10.926Z,20.37
2023-05-06T11:43:37.383Z,20.56
2023-05-06T11:46:03.943Z,20.91
2023-05-06T11:48:30.576Z,21.12
2023-05-06T11:50:57.103Z,21.36
2023-05-06T11:53:24.351Z,20.76
2023-05-06T11:55:53.922Z,20.85
2023-05-06T11:58:24.803Z,20.85
2023-05-06T12:00:59.590Z,20.62
2023-05-06T12:03:28.635Z,20.46
2023-05-06T12:05:56.155Z,20.93
2023-05-06T12:08:28.318Z,21.25
2023-05-06T12:11:07.205Z,21.49
2023-05-06T12:13:37.773Z,21.54
2023-05-06T12:16:06.259Z,21.60
2023-05-06T12:18:33.212Z,21.60
2023-05-06T12:21:02.666Z,20.74
2023-05-06T12:23:29.422Z,21.20
2023-05-06T12:26:05.266Z,20.87
2023-05-06T12:28:33.182Z,20.70
2023-05-06T12:31:00.731Z,20.74
2023-05-06T12:33:27.191Z,20.41
2023-05-06T12:35:56.961Z,20.85
2023-05-06T12:38:23.451Z,20.66
2023-05-06T12:40:54.952Z,20.47
2023-05-06T12:43:30.233Z,20.53
2023-05-06T12:46:07.079Z,21.03
2023-05-06T12:48:33.838Z,21.26
2023-05-06T12:51:00.318Z,21.74
2023-05-06T12:53:34.870Z,21.98
2023-05-06T12:56:01.354Z,21.79
2023-05-06T12:58:27.884Z,21.53
2023-05-06T13:00:54.344Z,21.87
2023-05-06T13:03:21.079Z,21.75
2023-05-06T13:05:49.991Z,21.80
2023-05-06T13:08:16.660Z,22.02
2023-05-06T13:10:43.091Z,21.43
2023-05-06T13:13:09.549Z,21.98
2023-05-06T13:15:36.327Z,22.34
2023-05-06T13:18:03.040Z,22.85
2023-05-06T13:20:30.728Z,23.80
2023-05-06T13:22:57.181Z,24.49
2023-05-06T13:25:23.654Z,23.43
2023-05-06T13:27:50.187Z,23.36
2023-05-06T13:30:16.914Z,23.48
2023-05-06T13:32:43.392Z,22.56
2023-05-06T13:35:10.293Z,22.24
2023-05-06T13:37:37.006Z,21.77
2023-05-06T13:40:04.797Z,23.09
2023-05-06T13:42:31.256Z,24.01
2023-05-06T13:44:57.699Z,24.65
2023-05-06T13:47:24.298Z,24.44
2023-05-06T13:49:51.003Z,25.38
2023-05-06T13:52:17.473Z,25.62
2023-05-06T13:54:44.901Z,25.44
2023-05-06T13:57:11.450Z,25.52
2023-05-06T13:59:37.865Z,25.62
2023-05-06T14:02:08.218Z,25.70
2023-05-06T14:04:36.060Z,25.42
2023-05-06T14:07:02.597Z,25.25
2023-05-06T14:09:29.051Z,24.04
2023-05-06T14:11:55.570Z,23.59
2023-05-06T14:14:21.956Z,23.46
2023-05-06T14:16:48.415Z,23.24
2023-05-06T14:19:14.852Z,22.38
2023-05-06T14:21:41.243Z,22.55
2023-05-06T14:24:08.183Z,22.89
2023-05-06T14:26:34.806Z,23.47
2023-05-06T14:29:01.377Z,23.55
2023-05-06T14:31:29.497Z,23.90
2023-05-06T14:33:56.349Z,24.25
2023-05-06T14:36:22.902Z,23.96
2023-05-06T14:38:49.399Z,23.97
2023-05-06T14:41:15.839Z,23.54
2023-05-06T14:43:42.279Z,22.31
2023-05-06T14:46:08.799Z,22.87
2023-05-06T14:48:35.334Z,23.64
2023-05-06T14:51:01.861Z,23.74
2023-05-06T14:53:28.359Z,23.54
2023-05-06T14:55:56.307Z,23.89
2023-05-06T14:58:22.867Z,23.83
2023-05-06T15:00:49.372Z,23.98
2023-05-06T15:03:15.873Z,24.13
2023-05-06T15:05:42.348Z,24.30
2023-05-06T15:08:09.885Z,24.27
2023-05-06T15:10:36.443Z,23.82
2023-05-06T15:13:03.037Z,22.86
2023-05-06T15:15:29.623Z,23.04
2023-05-06T15:17:56.132Z,23.44
2023-05-06T15:20:22.686Z,24.14
2023-05-06T15:22:49.264Z,24.02
2023-05-06T15:25:30.174Z,24.41
2023-05-06T15:28:00.581Z,24.08
2023-05-06T15:30:27.120Z,24.04
2023-05-06T15:32:53.651Z,24.20
2023-05-06T15:35:20.379Z,24.51
2023-05-06T15:37:47.192Z,24.27
2023-05-06T15:40:13.780Z,23.19
2023-05-06T15:42:40.671Z,23.10
2023-05-06T15:45:07.710Z,23.19
2023-05-06T15:47:34.261Z,23.76
2023-05-06T15:50:01.566Z,23.86
2023-05-06T15:52:28.548Z,24.27
2023-05-06T15:54:59.512Z,24.19
2023-05-06T15:57:26.425Z,23.77
2023-05-06T15:59:52.916Z,23.96
2023-05-06T16:04:49.134Z,23.77
2023-05-06T16:07:16.594Z,23.46
2023-05-06T16:09:43.475Z,23.69
2023-05-06T16:12:10.054Z,23.48
2023-05-06T16:14:36.815Z,24.08
2023-05-06T16:17:03.394Z,22.92
2023-05-06T16:19:31.993Z,22.62
2023-05-06T16:21:58.477Z,22.17
2023-05-06T16:24:24.919Z,21.83
2023-05-06T16:26:51.782Z,21.76
2023-05-06T16:29:20.469Z,22.09
2023-05-06T16:31:47.685Z,21.79
2023-05-06T16:34:14.813Z,22.12
2023-05-06T16:36:41.393Z,21.93
2023-05-06T16:39:08.312Z,21.67
2023-05-06T16:41:34.806Z,21.70
2023-05-06T16:44:01.648Z,21.58
2023-05-06T16:46:28.910Z,21.75
2023-05-06T16:48:55.868Z,21.37
2023-05-06T16:51:22.548Z,21.09
2023-05-06T16:53:49.202Z,20.73
2023-05-06T16:56:15.973Z,20.89
2023-05-06T16:58:42.852Z,21.13
2023-05-06T17:01:09.678Z,21.20
2023-05-06T17:03:40.324Z,20.93
2023-05-06T17:06:07.285Z,20.95
2023-05-06T17:08:36.336Z,20.70
2023-05-06T17:11:06.698Z,20.53
2023-05-06T17:13:33.818Z,20.44
2023-05-06T17:16:00.323Z,20.37
2023-05-06T17:18:26.858Z,20.40
2023-05-06T17:20:56.626Z,20.23
2023-05-06T17:23:23.744Z,20.43
2023-05-06T17:25:50.875Z,20.49
2023-05-06T17:28:18.696Z,20.45
2023-05-06T17:30:45.781Z,20.38
2023-05-06T17:33:12.582Z,20.52
2023-05-06T17:35:39.255Z,20.42
2023-05-06T17:38:05.829Z,20.27
2023-05-06T17:40:32.270Z,20.23
2023-05-06T17:42:58.775Z,20.27
2023-05-06T17:45:26.688Z,20.15
2023-05-06T17:47:53.379Z,20.04
2023-05-06T17:50:19.979Z,20.01
2023-05-06T17:52:48.787Z,19.98
2023-05-06T17:55:17.330Z,19.88
2023-05-06T17:57:44.257Z,19.75
2023-05-06T18:00:11.457Z,19.58
2023-05-06T18:02:42.180Z,19.51
2023-05-06T18:05:09.496Z,19.45
2023-05-06T18:07:36.391Z,19.33
2023-05-06T18:10:02.922Z,19.21
2023-05-06T18:12:30.803Z,19.10
2023-05-06T18:14:57.820Z,18.97
2023-05-06T18:17:24.436Z,18.76
2023-05-06T18:19:50.943Z,18.57
2023-05-06T18:22:17.440Z,17.67
2023-05-06T18:24:43.959Z,17.49
2023-05-06T18:27:10.376Z,16.81
2023-05-06T18:29:36.778Z,16.29
2023-05-06T18:32:03.930Z,16.24
2023-05-06T18:34:30.598Z,15.91
2023-05-06T18:36:57.916Z,15.85
2023-05-06T18:39:24.470Z,15.66
2023-05-06T18:41:50.897Z,15.66
2023-05-06T18:44:17.326Z,15.47
2023-05-06T18:46:43.727Z,15.32
2023-05-06T18:49:10.278Z,15.17
2023-05-06T18:51:37.149Z,14.93
2023-05-06T18:54:03.566Z,14.66
2023-05-06T18:56:30.027Z,14.51
2023-05-06T18:58:56.520Z,14.28
2023-05-06T19:01:24.948Z,14.32
2023-05-06T19:03:54.509Z,14.12
2023-05-06T19:06:20.991Z,14.22
2023-05-06T19:08:47.586Z,14.18
2023-05-06T19:11:21.188Z,14.20
2023-05-06T19:13:47.710Z,14.11
2023-05-06T19:16:14.257Z,14.17
2023-05-06T19:18:40.828Z,14.14
2023-05-06T19:21:09.893Z,14.03
2023-05-06T19:23:36.624Z,13.92
2023-05-06T19:26:05.678Z,14.04
2023-05-06T19:28:33.350Z,14.16
2023-05-06T19:30:59.859Z,14.24
2023-05-06T19:33:26.397Z,14.25
2023-05-06T19:35:52.851Z,14.28
2023-05-06T19:38:19.711Z,14.27
2023-05-06T19:40:46.154Z,14.30
2023-05-06T19:43:12.604Z,14.30
2023-05-06T19:45:39.702Z,14.16
2023-05-06T19:48:08.336Z,14.20
2023-05-06T19:50:34.931Z,14.02
2023-05-06T19:53:01.350Z,13.76
2023-05-06T19:55:27.868Z,13.66
2023-05-06T19:57:57.533Z,13.60
2023-05-06T20:00:25.486Z,13.60
2023-05-06T20:02:52.099Z,13.58
2023-05-06T20:05:18.703Z,13.53
2023-05-06T20:07:45.332Z,13.52
2023-05-06T20:10:13.482Z,13.38
2023-05-06T20:12:41.034Z,13.19
2023-05-06T20:15:09.010Z,13.07
2023-05-06T20:17:35.806Z,13.12
2023-05-06T20:20:09.096Z,13.17
2023-05-06T20:22:39.872Z,13.17
2023-05-06T20:25:11.393Z,13.14
2023-05-06T20:27:38.243Z,13.22
2023-05-06T20:30:07.166Z,13.10
2023-05-06T20:32:33.867Z,13.13
2023-05-06T20:35:00.493Z,13.05
2023-05-06T20:37:28.202Z,13.14
2023-05-06T20:39:54.657Z,13.24
2023-05-06T20:42:21.124Z,13.33
2023-05-06T20:44:50.382Z,13.31
2023-05-06T20:47:17.087Z,13.24
2023-05-06T20:49:43.550Z,12.94
2023-05-06T20:52:14.329Z,13.01
2023-05-06T20:54:44.399Z,13.04
2023-05-06T20:57:13.222Z,13.12
2023-05-06T20:59:39.714Z,13.29
2023-05-06T21:02:06.437Z,13.29
2023-05-06T21:04:33.396Z,13.22
2023-05-06T21:06:59.863Z,13.07
2023-05-06T21:09:29.303Z,13.10
2023-05-06T21:11:56.304Z,13.04
2023-05-06T21:14:26.317Z,12.90
2023-05-06T21:16:53.167Z,12.95
2023-05-06T21:19:19.865Z,12.91
2023-05-06T21:21:46.470Z,12.75
2023-05-06T21:24:13.149Z,12.49
2023-05-06T21:26:39.881Z,12.61
2023-05-06T21:29:06.368Z,12.69
2023-05-06T21:31:32.924Z,12.57
2023-05-06T21:33:59.467Z,12.55
2023-05-06T21:36:26.092Z,12.51
2023-05-06T21:39:09.611Z,12.34
2023-05-06T21:41:36.589Z,12.21
2023-05-06T21:44:04.357Z,12.26
2023-05-06T21:46:31.512Z,12.15
2023-05-06T21:48:58.158Z,11.88
2023-05-06T21:51:27.893Z,11.66
2023-05-06T21:53:54.624Z,11.43
2023-05-06T21:56:21.895Z,11.14
2023-05-06T21:58:48.805Z,11.03
2023-05-06T22:01:15.564Z,11.00
2023-05-06T22:03:42.198Z,11.16
2023-05-06T22:06:08.749Z,11.08
2023-05-06T22:08:35.227Z,11.02
2023-05-06T22:11:01.764Z,11.01
2023-05-06T22:13:28.324Z,11.07
2023-05-06T22:15:54.894Z,11.08
2023-05-06T22:18:21.614Z,11.15
2023-05-06T22:20:49.284Z,11.09
2023-05-06T22:23:15.804Z,11.08
2023-05-06T22:25:42.251Z,11.05
2023-05-06T22:28:08.677Z,10.90
2023-05-06T22:30:35.079Z,10.94
2023-05-06T22:33:01.621Z,10.89
2023-05-06T22:35:28.099Z,10.82
2023-05-06T22:37:54.547Z,10.88
2023-05-06T22:40:21.082Z,11.00
2023-05-06T22:42:48.180Z,11.10
2023-05-06T22:45:14.697Z,11.25
2023-05-06T22:47:41.251Z,11.35
2023-05-06T22:50:08.063Z,11.51
2023-05-06T22:52:34.601Z,11.50
2023-05-06T22:55:01.068Z,11.62
2023-05-06T22:57:27.578Z,11.49
2023-05-06T22:59:54.058Z,11.01
2023-05-06T23:02:20.477Z,10.84
2023-05-06T23:04:46.979Z,10.82
2023-05-06T23:07:13.845Z,10.54
2023-05-06T23:09:40.426Z,10.34
2023-05-06T23:12:07.534Z,10.25
2023-05-06T23:14:33.977Z,10.41
2023-05-06T23:17:00.447Z,10.62
2023-05-06T23:19:26.931Z,10.72
2023-05-06T23:21:53.496Z,10.59
2023-05-06T23:24:19.937Z,10.60
2023-05-06T23:26:46.357Z,10.57
2023-05-06T23:29:12.856Z,10.51
2023-05-06T23:31:39.426Z,10.61
2023-05-06T23:34:05.934Z,10.64
2023-05-06T23:36:32.373Z,10.56
2023-05-06T23:38:58.813Z,10.54
2023-05-06T23:41:25.250Z,10.61
2023-05-06T23:43:51.646Z,10.89
2023-05-06T23:46:18.089Z,11.02
2023-05-06T23:48:44.593Z,11.15
2023-05-06T23:51:11.059Z,11.08
2023-05-06T23:53:37.493Z,10.69
2023-05-06T23:56:04.184Z,10.37
2023-05-06T23:58:30.646Z,10.37
